Portada
METAR-TAF:

METAR-TAF

Aeroports :

Kairuan, Tunísia

latitud: 35-40N, longitud: 010-06E, altitud: 60 m

Observació

L'informe es va fer fa 31 minuts, a les 10:00 UTC
Vent 10 kt del Nord, variant entre Oest/Nord-Oest i Nord-Est
Temperatura 27°C
Humitat 37%
Pressió 1008 hPa
Visibilitat 10 km o més
Núvols disperses a una alçada de 2300 ft

METAR: DTTK 051000Z 35010KT 300V040 9999 SCT023 27/11 Q1008

Hora: 11:31 (10:31 UTC)


TAF: manca

Observacions i pronòstics meteorològics de més de 4000 aeroports (METAR i TAF).

Les estacions disponibles són els punts grocs i vermells al mapa.

Posi el ratolí al punt desitjat per veure el nom de l'estació.

Feu clic per veure les observacions i els pronòstics meteorològics.

Per canviar el mapa: feu clic els botons verds amb una creu de color negre per apropar; al botó verd amb un guió per allunyar la imatge; o en les fletxes verdes per a mapes adjacents.


METAR-TAF: